logo
Search for airport 
image banner adimage banner adimage banner ad
image banner ad

FAAF - Andrews Field

Located in Struisbaai, South Africa

ICAO - FAAF, IATA -

Data provided by Airmate  

General information

Coordinates: S34°45'47" E20°2'6"
Elevation is 29 feet MSL.
 
View others Airports in Western Cape

Operational data

Special qualification required
Current time UTC:
Current local time:
Weather at : - ( 0 km )
METAR: EKKA 181121Z 28010KT 8000 -SHRA FEW020CB BKN025 07/04 Q1014 NOSIG
View NOTAMs / SUP AIP / TFR affecting this airport [VIEW]
Communications frequencies: [VIEW]

Runways:

RWY identifierQFULength (ft)Width (ft)SurfaceLDA (ft)
1080°328133ASPH
28260°328133ASPH

Airport contact information

Address: Struisbaai South Africa

Satellite view of FAAF